createdAt,value
2022-09-26T00:00:24.510Z,8.14
2022-09-26T00:05:26.942Z,8.17
2022-09-26T00:10:32.065Z,8.23
2022-09-26T00:15:34.205Z,8.23
2022-09-26T00:20:37.333Z,8.25
2022-09-26T00:25:49.182Z,8.21
2022-09-26T00:30:51.591Z,8.15
2022-09-26T00:35:55.410Z,8.28
2022-09-26T00:40:58.151Z,8.10
2022-09-26T00:46:22.944Z,8.17
2022-09-26T00:51:25.501Z,7.81
2022-09-26T00:56:33.814Z,7.85
2022-09-26T01:01:36.377Z,7.88
2022-09-26T01:06:38.904Z,8.01
2022-09-26T01:11:42.305Z,7.99
2022-09-26T01:16:48.480Z,7.95
2022-09-26T01:22:12.380Z,7.96
2022-09-26T01:27:22.280Z,7.94
2022-09-26T01:32:55.405Z,7.83
2022-09-26T01:38:20.508Z,7.67
2022-09-26T01:43:34.045Z,7.67
2022-09-26T01:48:46.058Z,7.67
2022-09-26T01:54:00.528Z,7.80
2022-09-26T01:59:09.733Z,7.78
2022-09-26T02:04:20.484Z,7.86
2022-09-26T02:09:35.428Z,7.71
2022-09-26T02:14:42.116Z,7.59
2022-09-26T02:19:44.518Z,7.70
2022-09-26T02:24:46.747Z,7.74
2022-09-26T02:29:48.828Z,7.60
2022-09-26T02:34:53.149Z,7.54
2022-09-26T02:39:56.377Z,7.60
2022-09-26T02:45:23.017Z,7.64
2022-09-26T02:50:56.610Z,7.43
2022-09-26T02:56:17.548Z,7.36
2022-09-26T03:01:29.375Z,7.54
2022-09-26T03:06:40.072Z,7.38
2022-09-26T03:11:43.636Z,7.40
2022-09-26T03:16:46.607Z,7.24
2022-09-26T03:21:49.386Z,7.10
2022-09-26T03:26:53.290Z,7.13
2022-09-26T03:31:55.773Z,7.02
2022-09-26T03:36:58.380Z,7.17
2022-09-26T03:42:00.661Z,7.09
2022-09-26T03:47:05.393Z,7.14
2022-09-26T03:52:14.074Z,7.01
2022-09-26T03:57:18.745Z,7.32
2022-09-26T04:02:26.584Z,6.99
2022-09-26T04:07:45.132Z,6.94
2022-09-26T04:12:47.547Z,7.12
2022-09-26T04:17:51.161Z,7.19
2022-09-26T04:22:55.318Z,7.16
2022-09-26T04:27:57.391Z,7.23
2022-09-26T04:32:59.960Z,7.28
2022-09-26T04:38:19.077Z,7.51
2022-09-26T04:43:21.376Z,7.61
2022-09-26T04:48:24.456Z,7.73
2022-09-26T04:53:44.450Z,7.69
2022-09-26T04:58:54.886Z,7.82
2022-09-26T05:03:58.626Z,7.76
2022-09-26T05:09:04.456Z,7.97
2022-09-26T05:14:27.446Z,7.88
2022-09-26T05:19:29.749Z,7.98
2022-09-26T05:25:13.712Z,8.47
2022-09-26T05:30:16.233Z,8.84
2022-09-26T05:35:19.099Z,8.90
2022-09-26T05:40:39.771Z,9.08
2022-09-26T05:45:43.352Z,9.35
2022-09-26T05:50:48.887Z,9.70
2022-09-26T05:55:51.905Z,9.72
2022-09-26T06:01:20.469Z,10.51
2022-09-26T06:06:30.867Z,18.09
2022-09-26T06:11:43.801Z,25.30
2022-09-26T06:16:46.200Z,28.05
2022-09-26T06:21:49.210Z,26.52
2022-09-26T06:26:52.072Z,27.37
2022-09-26T06:31:54.388Z,29.23
2022-09-26T06:37:22.331Z,30.50
2022-09-26T06:42:25.510Z,29.68
2022-09-26T06:47:47.550Z,29.28
2022-09-26T06:53:13.435Z,31.96
2022-09-26T06:58:15.881Z,31.16
2022-09-26T07:03:33.116Z,29.69
2022-09-26T07:09:03.035Z,30.43
2022-09-26T07:14:24.805Z,28.19
2022-09-26T07:19:32.067Z,27.89
2022-09-26T07:24:39.924Z,28.04
2022-09-26T07:29:42.919Z,26.93
2022-09-26T07:34:45.771Z,27.37
2022-09-26T07:39:52.793Z,28.37
2022-09-26T07:50:19.938Z,28.79
2022-09-26T07:56:05.722Z,29.06
2022-09-26T08:01:29.998Z,30.09
2022-09-26T08:06:51.230Z,30.59
2022-09-26T08:11:53.568Z,31.37
2022-09-26T08:17:18.278Z,32.16
2022-09-26T08:22:20.594Z,32.68
2022-09-26T08:27:27.367Z,32.74
2022-09-26T08:32:32.544Z,32.27
2022-09-26T08:37:35.359Z,32.20
2022-09-26T08:43:18.518Z,31.84
2022-09-26T08:49:02.146Z,32.88
2022-09-26T08:54:19.407Z,32.88
2022-09-26T08:59:27.816Z,33.74
2022-09-26T09:04:50.259Z,31.78
2022-09-26T09:10:05.105Z,32.86
2022-09-26T09:15:39.929Z,33.94
2022-09-26T09:21:00.869Z,33.45
2022-09-26T09:31:42.247Z,30.18
2022-09-26T09:37:07.803Z,31.10
2022-09-26T09:42:50.492Z,31.60
2022-09-26T09:47:52.952Z,30.60
2022-09-26T09:53:27.832Z,32.21
2022-09-26T09:58:48.338Z,30.78
2022-09-26T10:04:07.204Z,30.24
2022-09-26T10:09:39.031Z,30.67
2022-09-26T10:15:20.590Z,31.80
2022-09-26T10:21:12.414Z,29.93
2022-09-26T10:26:16.400Z,30.37
2022-09-26T10:31:23.505Z,28.94
2022-09-26T10:36:44.067Z,28.18
2022-09-26T10:41:48.138Z,28.51
2022-09-26T10:46:53.195Z,29.24
2022-09-26T10:52:23.890Z,29.70
2022-09-26T10:57:53.349Z,29.28
2022-09-26T11:02:58.006Z,29.57
2022-09-26T11:08:05.716Z,29.16
2022-09-26T11:13:32.585Z,28.05
2022-09-26T11:18:45.312Z,28.47
2022-09-26T11:24:03.225Z,27.81
2022-09-26T11:29:45.292Z,28.41
2022-09-26T11:34:54.626Z,28.45
2022-09-26T11:40:31.281Z,27.65
2022-09-26T11:45:47.343Z,27.99
2022-09-26T11:51:17.841Z,28.29
2022-09-26T11:56:43.687Z,27.82
2022-09-26T12:02:11.426Z,27.57
2022-09-26T12:07:44.617Z,27.72
2022-09-26T12:13:11.821Z,27.40
2022-09-26T12:18:25.110Z,27.13
2022-09-26T12:23:57.019Z,27.16
2022-09-26T12:29:08.753Z,26.63
2022-09-26T12:34:40.835Z,27.13
2022-09-26T12:39:52.449Z,27.38
2022-09-26T12:45:17.435Z,27.63
2022-09-26T12:50:41.224Z,27.61
2022-09-26T12:56:07.392Z,27.61
2022-09-26T13:01:43.707Z,27.82
2022-09-26T13:07:14.754Z,26.99
2022-09-26T13:12:40.760Z,27.08
2022-09-26T13:17:47.528Z,26.55
2022-09-26T13:23:06.383Z,26.92
2022-09-26T13:28:34.998Z,26.58
2022-09-26T13:33:52.296Z,25.78
2022-09-26T13:39:03.669Z,26.30
2022-09-26T13:44:44.625Z,26.41
2022-09-26T13:50:05.155Z,26.23
2022-09-26T13:55:12.825Z,26.61
2022-09-26T14:00:18.105Z,26.61
2022-09-26T14:05:20.292Z,26.53
2022-09-26T14:10:25.291Z,26.36
2022-09-26T14:15:48.544Z,26.43
2022-09-26T14:21:12.908Z,26.44
2022-09-26T14:26:42.403Z,26.30
2022-09-26T14:32:15.311Z,26.20
2022-09-26T14:37:41.989Z,25.66
2022-09-26T14:42:44.251Z,25.18
2022-09-26T14:47:56.626Z,24.84
2022-09-26T14:53:10.163Z,24.77
2022-09-26T15:05:09.525Z,23.91
2022-09-26T15:10:11.972Z,23.91
2022-09-26T15:15:49.463Z,23.59
2022-09-26T15:21:00.491Z,23.78
2022-09-26T15:26:09.316Z,24.03
2022-09-26T15:31:25.247Z,23.99
2022-09-26T15:36:30.270Z,23.45
2022-09-26T15:41:52.288Z,23.05
2022-09-26T15:46:54.833Z,22.69
2022-09-26T16:06:02.887Z,21.69
2022-09-26T16:11:22.645Z,20.82
2022-09-26T16:52:43.103Z,18.72
2022-09-26T17:03:30.802Z,18.25
2022-09-26T17:08:34.172Z,17.72
2022-09-26T17:13:36.576Z,17.38
2022-09-26T17:18:39.836Z,17.29
2022-09-26T17:23:42.708Z,16.94
2022-09-26T17:28:45.176Z,16.94
2022-09-26T17:33:52.627Z,16.62
2022-09-26T17:38:58.008Z,16.30
2022-09-26T17:44:01.219Z,15.83
2022-09-26T17:49:08.631Z,16.15
2022-09-26T17:54:26.363Z,15.68
2022-09-26T17:59:29.438Z,15.41
2022-09-26T18:04:31.895Z,15.49
2022-09-26T18:09:35.982Z,15.13
2022-09-26T18:14:42.616Z,15.03
2022-09-26T18:20:01.812Z,15.41
2022-09-26T18:25:15.250Z,15.04
2022-09-26T18:30:19.473Z,14.89
2022-09-26T18:35:25.109Z,14.81
2022-09-26T18:40:29.046Z,14.91
2022-09-26T18:51:03.698Z,14.88
2022-09-26T18:56:28.421Z,14.90
2022-09-26T19:01:34.642Z,14.61
2022-09-26T19:06:41.932Z,14.44
2022-09-26T19:17:38.533Z,14.48
2022-09-26T19:22:41.209Z,14.79
2022-09-26T19:27:49.866Z,14.84
2022-09-26T19:32:54.426Z,14.73
2022-09-26T19:38:03.827Z,15.28
2022-09-26T19:49:07.361Z,14.65
2022-09-26T19:54:18.136Z,14.81
2022-09-26T19:59:25.327Z,14.63
2022-09-26T20:04:31.534Z,14.51
2022-09-26T20:15:13.807Z,14.77
2022-09-26T20:20:24.858Z,15.38
2022-09-26T20:25:30.148Z,15.85
2022-09-26T20:30:51.169Z,16.20
2022-09-26T20:36:13.475Z,15.68
2022-09-26T20:41:44.742Z,15.64
2022-09-26T20:47:33.057Z,15.61
2022-09-26T20:52:48.522Z,15.85
2022-09-26T20:57:53.474Z,15.42
2022-09-26T21:02:57.550Z,15.76
2022-09-26T21:08:00.997Z,15.40
2022-09-26T21:13:03.466Z,15.33
2022-09-26T21:18:05.827Z,15.30
2022-09-26T21:23:10.576Z,15.11
2022-09-26T21:35:05.193Z,14.83
2022-09-26T21:40:08.610Z,14.26
2022-09-26T21:45:12.239Z,14.26
2022-09-26T21:50:14.626Z,14.07
2022-09-26T21:55:22.613Z,14.25
2022-09-26T22:05:58.315Z,14.29
2022-09-26T22:11:00.961Z,13.98
2022-09-26T22:16:11.636Z,13.80
2022-09-26T22:21:17.130Z,14.13
2022-09-26T22:26:20.145Z,13.87
2022-09-26T22:31:22.620Z,14.14
2022-09-26T22:36:25.291Z,14.16
2022-09-26T22:41:27.566Z,14.13
2022-09-26T22:46:33.650Z,14.45
2022-09-26T22:51:35.958Z,14.36
2022-09-26T22:56:38.355Z,14.11
2022-09-26T23:01:40.793Z,14.04
2022-09-26T23:06:43.174Z,14.04
2022-09-26T23:11:47.265Z,14.28
2022-09-26T23:16:49.420Z,14.14
2022-09-26T23:21:51.967Z,14.21
2022-09-26T23:26:54.153Z,14.43
2022-09-26T23:31:56.345Z,14.31
2022-09-26T23:36:58.493Z,14.44
2022-09-26T23:42:00.822Z,14.34
2022-09-26T23:47:04.470Z,14.46
2022-09-26T23:52:06.649Z,14.29
2022-09-26T23:57:09.724Z,14.22
